Time;durP1;ratioP1;P1;durP2;ratioP2;P2;SDS_P1;SDS_P2;PMS_P1;PMS_P2;Temp;Humidity;BMP_temperature;BMP_pressure;BME280_temperature;BME280_humidity;BME280_pressure;Samples;Min_cycle;Max_cycle;Signal;HPM_P1;HPM_P2
2023/04/03 00:00:07;;;;;;;4.50;3.20;;;;;;;9.66;68.85;94247.78;5071318;28;20820;-77
2023/04/03 00:02:34;;;;;;;5.00;3.33;;;;;;;9.71;69.43;94244.75;5071455;28;20923;-77
2023/04/03 00:05:01;;;;;;;2.73;2.53;;;;;;;9.67;69.15;94244.19;5071506;28;20448;-78
2023/04/03 00:07:28;;;;;;;3.23;2.93;;;;;;;9.71;69.22;94242.94;5052515;28;20483;-77
2023/04/03 00:09:56;;;;;;;4.80;2.70;;;;;;;9.69;68.66;94244.88;5071466;28;20512;-77
2023/04/03 00:12:23;;;;;;;3.13;2.60;;;;;;;9.68;70.34;94240.63;5052791;28;20485;-77
2023/04/03 00:14:50;;;;;;;3.53;3.03;;;;;;;9.68;69.81;94240.63;5073175;28;20964;-76
2023/04/03 00:17:16;;;;;;;4.33;3.73;;;;;;;9.66;68.93;94239.94;5074756;28;20490;-77
2023/04/03 00:19:43;;;;;;;3.87;2.90;;;;;;;9.62;68.44;94234.16;5039227;28;20672;-76
2023/04/03 00:22:10;;;;;;;3.80;3.50;;;;;;;9.57;69.13;94222.44;5056003;28;20493;-76
2023/04/03 00:24:37;;;;;;;4.23;2.87;;;;;;;9.53;69.95;94228.91;5074374;28;20488;-76
2023/04/03 00:27:05;;;;;;;3.30;3.00;;;;;;;9.42;69.81;94234.31;5074799;28;20470;-77
2023/04/03 00:29:31;;;;;;;4.13;3.33;;;;;;;9.39;70.39;94229.34;5074799;28;20839;-77
2023/04/03 00:31:58;;;;;;;3.23;2.93;;;;;;;9.30;70.42;94229.22;5074747;28;20443;-77
2023/04/03 00:34:25;;;;;;;6.93;3.53;;;;;;;9.17;70.82;94225.22;5074781;28;20467;-77
2023/04/03 00:36:52;;;;;;;3.40;2.73;;;;;;;9.18;71.44;94238.16;5074503;28;21070;-76
2023/04/03 00:39:19;;;;;;;3.10;2.80;;;;;;;9.19;71.56;94224.09;5074453;28;20467;-76
2023/04/03 00:41:45;;;;;;;4.07;2.70;;;;;;;9.14;71.30;94228.13;5055910;28;20441;-76
2023/04/03 00:44:44;;;;;;;3.97;3.03;;;;;;;9.15;72.20;94230.59;5074178;28;20790;-77
2023/04/03 00:47:14;;;;;;;3.00;2.40;;;;;;;9.10;72.60;94230.19;5074445;28;20508;-77
2023/04/03 00:49:41;;;;;;;5.87;3.00;;;;;;;9.14;71.71;94225.50;5074530;28;20443;-76
2023/04/03 00:52:12;;;;;;;3.63;2.93;;;;;;;9.13;72.41;94235.13;5074379;28;20447;-77
2023/04/03 00:54:41;;;;;;;3.33;3.00;;;;;;;9.10;72.46;94230.19;5055550;28;20485;-76
2023/04/03 00:57:09;;;;;;;4.07;2.83;;;;;;;9.09;72.26;94236.38;5073830;28;20492;-77
2023/04/03 00:59:43;;;;;;;6.63;3.23;;;;;;;9.10;72.97;94231.97;5073990;28;20919;-74
2023/04/03 01:02:11;;;;;;;3.07;2.77;;;;;;;9.12;72.22;94230.88;5074058;28;20447;-76
2023/04/03 01:04:40;;;;;;;3.40;2.50;;;;;;;9.04;72.08;94225.50;5073833;28;20497;-77
2023/04/03 01:07:09;;;;;;;2.93;2.73;;;;;;;9.00;71.88;94235.41;5073745;28;20470;-77
2023/04/03 01:09:37;;;;;;;6.03;3.00;;;;;;;8.92;71.90;94234.44;5073759;28;20492;-77
2023/04/03 01:12:16;;;;;;;5.10;2.83;;;;;;;8.80;72.04;94225.88;5073701;28;20446;-77
2023/04/03 01:14:44;;;;;;;3.43;2.90;;;;;;;8.79;73.65;94236.50;5073985;28;20482;-77
2023/04/03 01:17:30;;;;;;;2.90;2.70;;;;;;;8.76;73.46;94239.38;5073432;28;20490;-76
2023/04/03 01:20:20;;;;;;;5.30;3.13;;;;;;;8.70;73.80;94230.28;5073581;28;20477;-77
2023/04/03 01:22:53;;;;;;;5.40;3.07;;;;;;;8.71;73.31;94234.56;5073468;28;20941;-77
2023/04/03 01:25:20;;;;;;;3.97;3.30;;;;;;;8.76;73.65;94223.69;5073226;28;20448;-76
2023/04/03 01:27:46;;;;;;;5.00;4.03;;;;;;;8.75;72.82;94232.50;5073443;28;20860;-77
2023/04/03 01:30:19;;;;;;;5.03;2.90;;;;;;;8.79;72.79;94237.31;5073862;28;20446;-76
2023/04/03 01:32:48;;;;;;;4.93;3.23;;;;;;;8.82;74.25;94234.44;5073108;28;20458;-76
2023/04/03 01:35:14;;;;;;;3.90;3.53;;;;;;;8.85;74.33;94233.31;5073394;28;20495;-77
2023/04/03 01:37:41;;;;;;;5.50;2.87;;;;;;;8.82;74.04;94236.22;5073337;28;20490;-75
2023/04/03 01:40:09;;;;;;;3.43;3.13;;;;;;;8.84;74.00;94239.53;5073197;28;20454;-75
2023/04/03 01:42:36;;;;;;;3.37;2.97;;;;;;;8.80;73.24;94238.97;5073626;28;20458;-77
2023/04/03 01:45:02;;;;;;;3.27;2.90;;;;;;;8.82;72.68;94236.22;5072992;28;20453;-77
2023/04/03 01:47:29;;;;;;;2.87;2.67;;;;;;;8.80;72.70;94240.75;5072924;28;20450;-76
2023/04/03 01:49:57;;;;;;;3.43;2.87;;;;;;;8.68;73.01;94242.69;5073085;28;20438;-76
2023/04/03 01:52:24;;;;;;;4.87;3.03;;;;;;;8.59;73.87;94248.69;5037369;28;20925;-76
2023/04/03 01:54:51;;;;;;;4.27;2.63;;;;;;;8.51;73.83;94254.59;5072911;28;20987;-77
2023/04/03 01:57:18;;;;;;;3.23;2.90;;;;;;;8.48;73.94;94254.88;5072727;28;20576;-76
2023/04/03 01:59:45;;;;;;;3.93;3.07;;;;;;;8.45;74.14;94251.69;5072585;28;20456;-76
2023/04/03 02:02:14;;;;;;;7.00;3.77;;;;;;;8.49;74.09;94247.84;5072485;28;20817;-76
2023/04/03 02:04:41;;;;;;;4.60;3.17;;;;;;;8.53;74.02;94250.06;5072648;28;20952;-77
2023/04/03 02:07:09;;;;;;;3.83;3.20;;;;;;;8.53;74.06;94250.06;5072566;28;20474;-76
2023/04/03 02:09:36;;;;;;;4.73;3.57;;;;;;;8.59;73.64;94251.31;5072458;28;20987;-76
2023/04/03 02:12:03;;;;;;;3.53;3.23;;;;;;;8.63;73.36;94255.31;5072505;28;20938;-76
2023/04/03 02:14:29;;;;;;;4.73;3.70;;;;;;;8.68;73.07;94248.72;5072501;28;20496;-76
2023/04/03 02:16:56;;;;;;;5.00;3.80;;;;;;;8.59;73.04;94243.47;5072504;28;20450;-77
2023/04/03 02:19:23;;;;;;;5.00;4.30;;;;;;;8.67;73.40;94247.09;5053719;28;20434;-77
2023/04/03 02:21:50;;;;;;;3.63;3.20;;;;;;;8.74;72.83;94246.53;5072577;28;20523;-76
2023/04/03 02:24:18;;;;;;;3.50;2.97;;;;;;;8.75;72.95;94242.97;5072509;28;20859;-76
2023/04/03 02:26:45;;;;;;;3.17;2.87;;;;;;;8.78;72.56;94242.69;5072156;28;20491;-77
2023/04/03 02:29:11;;;;;;;3.60;2.57;;;;;;;8.81;72.22;94242.41;5072695;28;20434;-77
2023/04/03 02:31:38;;;;;;;4.83;3.20;;;;;;;8.76;72.23;94239.38;5072408;28;20447;-77
2023/04/03 02:34:05;;;;;;;4.00;2.97;;;;;;;8.73;72.88;94240.47;5072704;28;20515;-77
2023/04/03 02:36:32;;;;;;;4.20;3.20;;;;;;;8.62;72.74;94232.72;5072320;28;20445;-77
2023/04/03 02:38:58;;;;;;;3.70;3.20;;;;;;;8.54;73.29;94243.88;5054406;28;20490;-77
2023/04/03 02:41:33;;;;;;;4.50;3.20;;;;;;;8.43;72.86;94237.94;5073364;28;20465;-77
2023/04/03 02:44:00;;;;;;;4.37;3.23;;;;;;;8.37;73.80;94236.66;5073010;28;20770;-76
2023/04/03 02:46:26;;;;;;;5.50;4.40;;;;;;;8.32;74.17;94241.41;5073077;28;20451;-77
2023/04/03 02:48:53;;;;;;;5.13;4.17;;;;;;;8.29;74.31;94233.84;5038002;28;20495;-77
2023/04/03 02:51:20;;;;;;;3.80;3.10;;;;;;;8.22;74.69;94230.13;5053606;28;20972;-76
2023/04/03 02:53:47;;;;;;;5.57;3.63;;;;;;;8.18;75.84;94228.72;5071866;28;20445;-77
2023/04/03 02:56:13;;;;;;;3.63;3.33;;;;;;;8.21;76.74;94225.84;5072285;28;20492;-77
2023/04/03 02:58:42;;;;;;;4.23;3.43;;;;;;;8.24;76.64;94222.97;5072074;28;20488;-76
2023/04/03 03:01:08;;;;;;;4.30;3.90;;;;;;;8.26;76.68;94218.44;5072431;28;20535;-77
2023/04/03 03:03:35;;;;;;;4.30;3.50;;;;;;;8.26;76.12;94215.81;5072070;28;20437;-75
2023/04/03 03:06:03;;;;;;;4.33;3.70;;;;;;;8.28;75.26;94213.91;5072025;28;20518;-76
2023/04/03 03:08:30;;;;;;;3.40;3.10;;;;;;;8.27;74.79;94209.63;5071907;28;20928;-76
2023/04/03 03:10:57;;;;;;;5.20;3.77;;;;;;;8.23;74.58;94205.63;5071861;28;20453;-76
2023/04/03 03:13:24;;;;;;;3.70;3.17;;;;;;;8.18;75.18;94203.44;5071981;28;20444;-76
2023/04/03 03:15:52;;;;;;;4.00;3.60;;;;;;;8.12;75.29;94203.13;5070324;28;20942;-76
2023/04/03 03:18:19;;;;;;;3.33;3.03;;;;;;;8.07;75.71;94203.50;5070993;28;20482;-76
2023/04/03 03:20:46;;;;;;;3.83;3.20;;;;;;;8.02;75.57;94210.91;5071994;28;20527;-75
2023/04/03 03:23:12;;;;;;;3.70;2.93;;;;;;;7.97;76.22;94208.69;5071400;28;20443;-77
2023/04/03 03:25:39;;;;;;;5.90;3.30;;;;;;;7.91;76.11;94211.84;5071798;28;20503;-76
2023/04/03 03:28:07;;;;;;;3.70;3.10;;;;;;;7.90;75.93;94207.56;5071627;28;20502;-78
2023/04/03 03:30:34;;;;;;;2.90;2.70;;;;;;;7.87;75.72;94205.22;5071691;28;20517;-77
2023/04/03 03:33:02;;;;;;;4.47;2.87;;;;;;;7.83;75.73;94206.44;5071751;28;20459;-76
2023/04/03 03:35:29;;;;;;;3.70;3.40;;;;;;;7.83;76.90;94211.66;5069648;28;20965;-77
2023/04/03 03:37:56;;;;;;;3.43;3.10;;;;;;;7.81;77.68;94210.16;5072326;28;20495;-77
2023/04/03 03:40:23;;;;;;;4.97;3.50;;;;;;;7.72;77.32;94207.34;5070920;28;20933;-74
2023/04/03 03:42:50;;;;;;;4.17;2.80;;;;;;;7.67;77.38;94193.84;5071964;28;20816;-76
2023/04/03 03:45:17;;;;;;;5.50;3.33;;;;;;;7.80;77.43;94208.47;5071858;28;20460;-76
2023/04/03 03:47:43;;;;;;;4.80;3.07;;;;;;;7.82;77.14;94210.03;5072722;28;20450;-76
2023/04/03 03:50:12;;;;;;;9.90;7.40;;;;;;;7.65;77.03;94206.22;5039566;28;20935;-77
2023/04/03 03:52:39;;;;;;;11.70;7.13;;;;;;;7.60;77.20;94215.41;5068089;28;20498;-76
2023/04/03 03:55:06;;;;;;;12.07;7.60;;;;;;;7.59;77.82;94214.56;5075116;28;20456;-76
2023/04/03 03:57:33;;;;;;;12.30;7.37;;;;;;;7.66;77.90;94222.69;5074791;28;20445;-76
2023/04/03 03:59:59;;;;;;;16.30;8.00;;;;;;;7.71;78.24;94225.75;5075220;28;20438;-76
2023/04/03 04:02:26;;;;;;;10.93;6.13;;;;;;;7.74;78.00;94225.50;5074490;28;20822;-77
2023/04/03 04:04:53;;;;;;;11.33;6.43;;;;;;;7.83;77.70;94213.47;5074870;28;20448;-77
2023/04/03 04:07:21;;;;;;;7.27;6.47;;;;;;;7.87;77.38;94207.84;5075125;28;20543;-76
2023/04/03 04:09:48;;;;;;;9.07;7.20;;;;;;;7.89;77.15;94215.53;5075079;28;20940;-75
2023/04/03 04:12:15;;;;;;;9.27;5.00;;;;;;;7.94;77.07;94211.56;5074917;28;20490;-75
2023/04/03 04:14:42;;;;;;;8.40;4.83;;;;;;;7.90;76.80;94209.34;5074950;28;20497;-77
2023/04/03 04:17:09;;;;;;;6.70;3.50;;;;;;;7.88;75.97;94221.72;5074324;28;20445;-76
2023/04/03 04:19:36;;;;;;;5.97;3.83;;;;;;;7.78;77.02;94217.25;5074470;28;20479;-75
2023/04/03 04:22:03;;;;;;;5.10;3.40;;;;;;;7.77;77.57;94220.00;5074638;28;20448;-76
2023/04/03 04:24:31;;;;;;;7.33;3.40;;;;;;;7.73;77.36;94223.84;5074475;28;20434;-76
2023/04/03 04:26:58;;;;;;;3.47;3.17;;;;;;;7.67;77.51;94224.34;5055815;28;20448;-76
2023/04/03 04:29:25;;;;;;;5.90;4.30;;;;;;;7.73;77.90;94234.28;5074471;28;20459;-76
2023/04/03 04:31:51;;;;;;;5.77;3.67;;;;;;;7.73;77.80;94232.50;5074680;28;20445;-75
2023/04/03 04:34:18;;;;;;;3.47;3.20;;;;;;;7.65;78.21;94231.50;5039694;28;20445;-76
2023/04/03 04:36:45;;;;;;;4.37;3.60;;;;;;;7.73;78.02;94223.84;5053989;28;20454;-76
2023/04/03 04:39:12;;;;;;;8.87;3.83;;;;;;;7.84;78.57;94236.84;5074244;28;20543;-76
2023/04/03 04:41:40;;;;;;;6.03;4.00;;;;;;;7.88;77.85;94230.38;5056952;28;20454;-77
2023/04/03 04:44:08;;;;;;;6.10;3.57;;;;;;;7.91;77.27;94237.13;5075525;28;20441;-76
2023/04/03 04:46:34;;;;;;;12.07;3.20;;;;;;;7.96;76.95;94246.22;5075157;28;20514;-76
2023/04/03 04:49:01;;;;;;;5.90;3.93;;;;;;;7.91;77.35;94232.75;5056401;28;20767;-77
2023/04/03 04:51:28;;;;;;;6.30;4.60;;;;;;;8.05;78.49;94245.44;5056393;28;20433;-76
2023/04/03 04:53:55;;;;;;;9.27;4.67;;;;;;;8.07;77.97;94243.53;5074892;28;20449;-76
2023/04/03 04:56:21;;;;;;;7.37;4.90;;;;;;;8.12;77.06;94253.59;5057067;28;20458;-78
2023/04/03 04:58:50;;;;;;;7.40;4.40;;;;;;;8.15;80.19;94260.34;5040058;28;20442;-77
2023/04/03 05:01:18;;;;;;;17.33;6.73;;;;;;;7.93;78.11;94270.00;5074994;28;20604;-76
2023/04/03 05:03:45;;;;;;;9.50;6.70;;;;;;;7.85;78.65;94275.06;5075570;28;20533;-76
2023/04/03 05:06:12;;;;;;;19.63;9.60;;;;;;;7.86;79.12;94271.47;5075485;28;20951;-77
2023/04/03 05:08:39;;;;;;;12.50;7.43;;;;;;;7.98;79.02;94280.06;5073824;28;20931;-76
2023/04/03 05:11:06;;;;;;;13.53;7.90;;;;;;;8.07;79.08;94282.72;5068938;28;20447;-76
2023/04/03 05:13:32;;;;;;;15.77;8.57;;;;;;;8.18;78.89;94284.44;5074858;28;20835;-76
2023/04/03 05:16:00;;;;;;;10.87;7.47;;;;;;;8.26;79.16;94279.38;5056088;28;20455;-76
2023/04/03 05:18:27;;;;;;;8.63;5.83;;;;;;;8.30;79.19;94275.53;5074401;28;20486;-80
2023/04/03 05:20:54;;;;;;;10.90;5.60;;;;;;;8.45;79.14;94273.44;5074840;28;20451;-77
2023/04/03 05:23:21;;;;;;;10.93;4.83;;;;;;;8.45;78.76;94276.06;5074573;28;20464;-77
2023/04/03 05:25:48;;;;;;;9.17;3.63;;;;;;;8.50;77.39;94276.47;5074241;28;20469;-77
2023/04/03 05:28:15;;;;;;;4.83;4.03;;;;;;;8.59;78.46;94274.84;5075060;28;20450;-77
2023/04/03 05:30:42;;;;;;;4.63;3.63;;;;;;;8.61;77.62;94275.53;5075187;28;20475;-77
2023/04/03 05:33:10;;;;;;;4.67;3.00;;;;;;;8.62;77.74;94278.00;5074604;28;20463;-77
2023/04/03 05:35:38;;;;;;;5.87;3.47;;;;;;;8.67;79.06;94272.38;5074593;28;20451;-76
2023/04/03 05:38:05;;;;;;;4.03;3.73;;;;;;;8.71;78.46;94259.88;5055146;28;20534;-76
2023/04/03 05:40:32;;;;;;;5.20;3.30;;;;;;;8.76;78.84;94257.69;5072988;28;20969;-77
2023/04/03 05:42:59;;;;;;;3.73;2.87;;;;;;;8.75;76.90;94269.94;5073511;28;20535;-77
2023/04/03 05:45:26;;;;;;;3.90;3.27;;;;;;;8.80;77.18;94267.75;5073054;28;20440;-77
2023/04/03 05:47:52;;;;;;;5.63;3.43;;;;;;;8.81;77.57;94253.69;5073048;28;20434;-76
2023/04/03 05:50:21;;;;;;;9.40;3.50;;;;;;;8.91;77.44;94257.16;5072676;28;20450;-79
2023/04/03 05:52:50;;;;;;;3.87;3.10;;;;;;;8.91;76.27;94265.00;5072802;28;20504;-77
2023/04/03 05:55:17;;;;;;;4.43;3.67;;;;;;;8.96;78.17;94256.72;5072723;28;20462;-77
2023/04/03 05:57:44;;;;;;;4.73;3.37;;;;;;;9.12;78.03;94253.59;5072851;28;20972;-77
2023/04/03 06:00:15;;;;;;;13.27;4.47;;;;;;;9.22;76.33;94257.03;5072741;28;20552;-77
2023/04/03 06:02:42;;;;;;;4.33;3.40;;;;;;;9.29;75.36;94258.16;5073142;28;20471;-77
2023/04/03 06:05:11;;;;;;;3.80;3.20;;;;;;;9.41;75.65;94246.56;5072577;28;20546;-77
2023/04/03 06:07:39;;;;;;;3.90;3.60;;;;;;;9.43;74.39;94255.13;5072425;28;20534;-77
2023/04/03 06:10:08;;;;;;;6.67;4.23;;;;;;;9.54;75.42;94247.13;5053569;28;20531;-77
2023/04/03 06:12:35;;;;;;;9.60;3.40;;;;;;;9.68;75.40;94252.88;5072886;28;20845;-78
2023/04/03 06:15:02;;;;;;;9.23;4.63;;;;;;;9.68;74.13;94248.47;5072329;28;20443;-77
2023/04/03 06:17:29;;;;;;;7.27;4.80;;;;;;;9.79;72.55;94253.53;5072571;28;20452;-78
2023/04/03 06:19:58;;;;;;;12.40;4.97;;;;;;;9.89;72.71;94254.38;5072312;28;20533;-77
2023/04/03 06:22:26;;;;;;;6.07;5.50;;;;;;;9.96;73.42;94253.78;5072317;28;21035;-77
2023/04/03 06:24:54;;;;;;;45.30;25.30;;;;;;;9.73;74.53;94250.66;5072461;28;20521;-77
2023/04/03 06:27:21;;;;;;;35.60;17.30;;;;;;;9.61;74.98;94255.25;5072379;28;20817;-77
2023/04/03 06:29:48;;;;;;;23.77;12.53;;;;;;;9.54;75.82;94257.59;5072259;28;20444;-77
2023/04/03 06:32:15;;;;;;;17.23;10.70;;;;;;;9.43;75.21;94260.34;5072446;28;20476;-77
2023/04/03 06:34:42;;;;;;;11.57;10.20;;;;;;;9.47;75.15;94266.13;5072560;28;20440;-76
2023/04/03 06:37:11;;;;;;;10.50;9.50;;;;;;;9.59;74.69;94275.50;5072922;28;20471;-77
2023/04/03 06:39:38;;;;;;;14.53;10.03;;;;;;;9.65;75.33;94274.94;5072443;28;20488;-77
2023/04/03 06:42:06;;;;;;;21.30;13.23;;;;;;;9.55;76.28;94272.34;5072221;28;20458;-77
2023/04/03 06:44:34;;;;;;;17.63;12.37;;;;;;;9.55;76.05;94271.53;5072430;28;20467;-77
2023/04/03 06:47:01;;;;;;;17.30;12.57;;;;;;;9.71;76.90;94269.16;5072145;28;20483;-77
2023/04/03 06:49:28;;;;;;;16.27;12.40;;;;;;;9.85;75.69;94267.91;5072041;28;20956;-76
2023/04/03 06:51:55;;;;;;;20.90;12.60;;;;;;;9.91;76.40;94260.28;5072156;28;20505;-76
2023/04/03 06:54:22;;;;;;;19.73;14.03;;;;;;;10.00;74.86;94260.41;5071964;28;20450;-77
2023/04/03 06:56:50;;;;;;;21.37;13.90;;;;;;;10.06;75.07;94267.69;5053121;28;20978;-77
2023/04/03 06:59:18;;;;;;;19.07;12.00;;;;;;;10.14;75.41;94267.84;5071970;28;20533;-77
2023/04/03 07:01:45;;;;;;;20.30;12.43;;;;;;;10.21;74.92;94272.38;5072131;28;20454;-78
2023/04/03 07:04:12;;;;;;;24.13;13.83;;;;;;;10.36;73.87;94269.28;5072015;28;20456;-77
2023/04/03 07:06:39;;;;;;;18.40;10.73;;;;;;;10.49;74.97;94261.94;5071662;28;20483;-77
2023/04/03 07:09:06;;;;;;;13.17;9.70;;;;;;;10.64;74.18;94260.47;5071910;28;20460;-77
2023/04/03 07:11:34;;;;;;;14.53;9.43;;;;;;;10.78;72.68;94259.16;5072206;28;20448;-78
2023/04/03 07:14:01;;;;;;;14.83;6.97;;;;;;;10.90;71.83;94247.47;5072066;28;20440;-77
2023/04/03 07:16:30;;;;;;;11.73;7.17;;;;;;;11.02;71.70;94243.69;5071722;28;20455;-76
2023/04/03 07:18:57;;;;;;;8.17;5.63;;;;;;;11.12;71.12;94239.19;5071751;28;20561;-78
2023/04/03 07:21:24;;;;;;;7.93;4.30;;;;;;;11.22;70.14;94244.34;5071619;28;20449;-78
2023/04/03 07:23:51;;;;;;;6.33;4.80;;;;;;;11.29;68.85;94242.78;5073560;28;20559;-78
2023/04/03 07:26:17;;;;;;;4.87;3.90;;;;;;;11.40;69.38;94239.94;5075766;28;20435;-77
2023/04/03 07:28:48;;;;;;;4.93;4.50;;;;;;;11.53;67.96;94238.69;5075530;28;20445;-78
2023/04/03 07:31:16;;;;;;;5.50;4.20;;;;;;;11.65;68.43;94237.50;5075701;28;20537;-78
2023/04/03 07:33:45;;;;;;;4.83;4.43;;;;;;;11.79;67.13;94240.41;5075797;28;21005;-77
2023/04/03 07:36:17;;;;;;;5.83;4.27;;;;;;;11.95;67.02;94223.13;5075562;28;20443;-78
2023/04/03 07:38:44;;;;;;;5.87;4.00;;;;;;;11.93;67.21;94232.97;5075563;28;20864;-77
2023/04/03 07:41:14;;;;;;;9.10;6.33;;;;;;;11.88;68.10;94224.72;5023373;28;20487;-77
2023/04/03 07:43:43;;;;;;;8.43;7.13;;;;;;;11.87;68.24;94223.09;5075415;28;20927;-79
2023/04/03 07:46:10;;;;;;;13.50;8.47;;;;;;;11.87;68.56;94229.16;5075450;28;20449;-78
2023/04/03 07:48:37;;;;;;;22.70;12.60;;;;;;;11.88;68.99;94227.34;5075525;28;20800;-79
2023/04/03 07:51:06;;;;;;;19.47;13.47;;;;;;;11.88;69.97;94230.00;5039998;28;20444;-78
2023/04/03 07:53:33;;;;;;;19.57;12.43;;;;;;;11.91;69.63;94227.06;5075546;28;20445;-79
2023/04/03 07:56:02;;;;;;;13.80;12.10;;;;;;;11.89;68.91;94231.63;5075469;28;20476;-78
2023/04/03 07:58:29;;;;;;;19.30;12.00;;;;;;;11.64;70.60;94220.09;5075096;28;20444;-76
2023/04/03 08:00:56;;;;;;;22.77;12.87;;;;;;;11.43;70.87;94225.66;5075019;28;20982;-75
2023/04/03 08:03:23;;;;;;;21.00;14.17;;;;;;;11.33;73.06;94222.31;5075504;28;20494;-77
2023/04/03 08:05:50;;;;;;;20.97;13.10;;;;;;;11.35;73.64;94225.59;5039473;28;20521;-78
2023/04/03 08:08:21;;;;;;;16.07;10.57;;;;;;;11.33;72.41;94224.94;5075060;28;21038;-77
2023/04/03 08:10:49;;;;;;;14.90;12.50;;;;;;;11.21;73.94;94228.75;5075059;28;20452;-79
2023/04/03 08:13:16;;;;;;;15.03;11.70;;;;;;;10.91;75.52;94224.66;5074907;28;20999;-78
2023/04/03 08:15:43;;;;;;;15.30;9.80;;;;;;;10.94;75.26;94219.13;5074945;28;20934;-78
2023/04/03 08:18:10;;;;;;;22.43;8.60;;;;;;;10.70;76.06;94223.16;5074871;28;20444;-77
2023/04/03 08:20:39;;;;;;;13.33;9.83;;;;;;;10.72;75.38;94215.16;5074819;28;20484;-78
2023/04/03 08:23:06;;;;;;;9.97;8.13;;;;;;;10.80;76.22;94220.47;5074510;28;20945;-77
2023/04/03 08:25:36;;;;;;;24.13;9.37;;;;;;;10.84;75.78;94206.91;5074701;28;20444;-78
2023/04/03 08:28:03;;;;;;;11.73;9.43;;;;;;;10.90;74.78;94210.72;5074366;28;20543;-77
2023/04/03 08:30:30;;;;;;;14.20;8.43;;;;;;;10.92;74.86;94203.53;5074888;28;20480;-78
2023/04/03 08:32:57;;;;;;;11.23;8.40;;;;;;;11.11;75.21;94205.19;5055932;28;20451;-77
2023/04/03 08:35:23;;;;;;;12.47;9.60;;;;;;;11.27;73.76;94207.94;5073248;28;20444;-78
2023/04/03 08:37:50;;;;;;;12.67;8.90;;;;;;;11.39;74.50;94198.88;5074401;28;20931;-77
2023/04/03 08:40:18;;;;;;;13.67;9.20;;;;;;;11.55;73.55;94200.78;5074424;28;20823;-77
2023/04/03 08:42:57;;;;;;;12.77;8.90;;;;;;;11.61;72.96;94188.88;5038971;28;20449;-78
2023/04/03 08:45:43;;;;;;;16.00;9.33;;;;;;;11.85;71.84;94185.56;5074261;28;20451;-77
2023/04/03 08:48:14;;;;;;;10.47;9.40;;;;;;;12.01;72.14;94185.69;5074163;28;20476;-78
2023/04/03 08:50:44;;;;;;;15.70;10.43;;;;;;;12.12;69.89;94182.78;5074253;28;20915;-77
2023/04/03 08:53:15;;;;;;;14.20;9.47;;;;;;;12.25;69.13;94188.44;5073939;28;20494;-77
2023/04/03 08:55:45;;;;;;;15.10;9.23;;;;;;;12.43;68.41;94180.44;5074072;28;20446;-78
2023/04/03 08:58:16;;;;;;;13.73;10.43;;;;;;;12.52;68.05;94176.06;5074163;28;20437;-77
2023/04/03 09:00:48;;;;;;;14.10;9.70;;;;;;;12.61;67.74;94173.28;5073873;28;20580;-78
2023/04/03 09:03:16;;;;;;;22.33;11.40;;;;;;;12.73;67.76;94173.00;5073717;28;20452;-76
2023/04/03 09:05:49;;;;;;;16.80;9.87;;;;;;;12.80;68.00;94172.19;5073688;28;20980;-78
2023/04/03 09:08:25;;;;;;;12.30;10.20;;;;;;;12.90;66.97;94166.78;5073718;28;20959;-77
2023/04/03 09:11:05;;;;;;;14.97;8.93;;;;;;;13.05;66.88;94162.53;5073713;28;20494;-78
2023/04/03 09:13:38;;;;;;;14.73;8.90;;;;;;;13.21;66.10;94165.19;5073706;28;20542;-78
2023/04/03 09:16:18;;;;;;;11.87;9.03;;;;;;;13.21;64.86;94154.66;5073744;28;20498;-77
2023/04/03 09:18:49;;;;;;;17.30;9.90;;;;;;;13.28;nan;94149.56;5073714;28;20488;-77
2023/04/03 09:21:24;;;;;;;17.37;9.70;;;;;;;13.34;65.46;94148.91;5073759;28;20482;-79
2023/04/03 09:23:53;;;;;;;11.43;9.17;;;;;;;13.28;63.69;94149.56;5073813;28;20502;-78
2023/04/03 09:26:26;;;;;;;15.03;8.53;;;;;;;13.01;63.76;94145.41;5073538;28;20447;-78
2023/04/03 09:28:57;;;;;;;9.13;8.23;;;;;;;13.15;64.10;94149.19;5073693;28;20482;-76
2023/04/03 09:31:26;;;;;;;10.27;7.50;;;;;;;13.28;64.71;94141.66;5073291;28;20952;-78
2023/04/03 09:33:57;;;;;;;8.57;7.33;;;;;;;13.42;64.64;94141.00;5074023;28;20921;-77
2023/04/03 09:36:40;;;;;;;19.17;8.17;;;;;;;13.55;64.60;94136.03;5073244;28;20454;-78
2023/04/03 09:39:12;;;;;;;7.50;6.00;;;;;;;13.68;62.55;94140.81;5072412;28;20515;-78
2023/04/03 09:41:38;;;;;;;16.87;6.80;;;;;;;13.74;62.00;94131.41;5073153;28;20993;-78
2023/04/03 09:44:22;;;;;;;15.73;8.00;;;;;;;13.70;60.54;94133.56;5073580;28;20447;-78
2023/04/03 09:46:49;;;;;;;12.13;7.00;;;;;;;13.54;61.00;94131.75;5073258;28;20536;-77
2023/04/03 09:49:18;;;;;;;11.50;5.63;;;;;;;13.60;60.40;94133.75;5073304;28;20932;-78
2023/04/03 09:51:45;;;;;;;5.67;5.17;;;;;;;13.62;59.95;94120.41;5073184;28;20869;-79
2023/04/03 09:54:42;;;;;;;8.10;4.10;;;;;;;13.47;59.81;94122.06;5073023;28;20451;-77
2023/04/03 09:57:12;;;;;;;8.13;4.10;;;;;;;13.52;59.41;94110.00;5050740;28;20455;-78
2023/04/03 09:59:47;;;;;;;6.53;3.70;;;;;;;13.40;59.45;94118.44;5017194;28;20432;-78
2023/04/03 10:02:31;;;;;;;3.70;3.40;;;;;;;13.27;60.17;94126.81;5050485;28;20439;-77
2023/04/03 10:04:58;;;;;;;3.83;3.53;;;;;;;13.30;61.27;94116.00;5050332;28;20481;-78
2023/04/03 10:07:31;;;;;;;5.30;3.90;;;;;;;13.07;60.70;94115.78;5050034;28;20475;-78
2023/04/03 10:09:59;;;;;;;4.37;3.97;;;;;;;12.90;60.90;94120.19;5050757;28;20448;-77
2023/04/03 10:12:26;;;;;;;9.03;3.43;;;;;;;12.95;61.42;94120.53;5017123;28;20475;-78
2023/04/03 10:14:59;;;;;;;4.00;3.60;;;;;;;13.04;61.83;94116.13;5050457;28;20443;-78
2023/04/03 10:17:37;;;;;;;3.50;3.20;;;;;;;13.20;61.52;94110.03;5050289;28;20458;-77
2023/04/03 10:20:14;;;;;;;7.10;4.23;;;;;;;13.13;61.97;94111.66;5050072;28;20478;-77
2023/04/03 10:22:48;;;;;;;8.97;5.33;;;;;;;13.12;62.10;94102.94;5050337;28;20446;-77
2023/04/03 10:25:23;;;;;;;7.40;4.93;;;;;;;13.16;61.76;94104.25;5016692;28;20470;-78
2023/04/03 10:27:56;;;;;;;8.93;3.87;;;;;;;13.18;61.52;94106.75;5049989;28;20451;-78
2023/04/03 10:30:43;;;;;;;4.43;3.60;;;;;;;13.24;61.06;94106.09;5052334;28;20865;-78
2023/04/03 10:33:34;;;;;;;4.30;3.77;;;;;;;13.12;60.78;94102.94;5072276;28;21000;-78
2023/04/03 10:36:11;;;;;;;9.67;6.30;;;;;;;13.17;61.02;94092.75;5072271;28;20820;-77
2023/04/03 10:38:49;;;;;;;14.30;11.80;;;;;;;13.14;61.48;94095.69;5072121;28;20453;-77
2023/04/03 10:41:23;;;;;;;25.50;22.90;;;;;;;13.20;61.30;94088.97;5072273;28;20488;-78
2023/04/03 10:43:57;;;;;;;5.73;5.13;;;;;;;13.22;61.04;94089.63;5072350;28;20448;-78
2023/04/03 10:46:30;;;;;;;4.30;3.90;;;;;;;12.99;61.73;94077.06;5072758;28;20496;-77
2023/04/03 10:49:15;;;;;;;6.60;5.00;;;;;;;12.76;63.01;94086.63;5072141;28;20499;-77
2023/04/03 10:51:46;;;;;;;3.27;3.07;;;;;;;12.83;62.64;94082.34;5072052;28;20453;-77
2023/04/03 10:54:17;;;;;;;5.60;3.40;;;;;;;12.91;63.24;94084.97;5071983;28;20449;-78
2023/04/03 10:56:49;;;;;;;8.83;6.20;;;;;;;12.99;64.96;94079.72;5072105;28;20727;-77
2023/04/03 10:59:26;;;;;;;5.80;4.10;;;;;;;12.98;65.45;94083.34;5071378;28;20492;-77
2023/04/03 11:01:57;;;;;;;8.63;4.30;;;;;;;12.84;65.87;94081.38;5072176;28;20488;-78
2023/04/03 11:04:27;;;;;;;5.43;4.93;;;;;;;12.74;67.43;94088.59;5071797;28;20929;-78
2023/04/03 11:07:01;;;;;;;6.63;4.53;;;;;;;12.66;69.02;94080.69;5053448;28;20987;-78
2023/04/03 11:09:31;;;;;;;5.83;5.23;;;;;;;12.63;70.27;94087.09;5071923;28;20863;-78
2023/04/03 11:12:05;;;;;;;6.63;5.90;;;;;;;12.20;73.08;94089.97;5053793;28;20446;-78
2023/04/03 11:14:35;;;;;;;5.03;4.53;;;;;;;12.30;74.51;94090.63;5071892;28;20448;-78
2023/04/03 11:17:24;;;;;;;5.60;4.97;;;;;;;12.13;77.47;94095.00;5072151;28;20829;-78
2023/04/03 11:20:00;;;;;;;4.77;4.30;;;;;;;12.07;79.08;94083.31;5071727;28;20862;-78
2023/04/03 11:22:31;;;;;;;6.73;4.27;;;;;;;12.01;78.50;94085.78;5071755;28;20479;-78
2023/04/03 11:25:07;;;;;;;5.50;5.00;;;;;;;12.07;81.93;94085.13;5071675;28;20441;-77
2023/04/03 11:27:41;;;;;;;5.80;5.07;;;;;;;12.14;82.72;94091.41;5071828;28;20937;-78
2023/04/03 11:30:18;;;;;;;4.60;4.20;;;;;;;12.07;83.11;94079.88;5071727;28;20444;-77
2023/04/03 11:33:01;;;;;;;4.70;4.30;;;;;;;11.87;85.13;94083.75;5072030;28;20946;-77
2023/04/03 11:35:29;;;;;;;5.23;4.73;;;;;;;11.89;85.54;94087.88;5072212;28;20539;-76
2023/04/03 11:37:57;;;;;;;6.07;4.63;;;;;;;11.85;87.72;94083.06;5071948;28;20817;-77
2023/04/03 11:40:27;;;;;;;5.30;4.80;;;;;;;11.50;88.71;94087.44;5072079;28;20506;-78
2023/04/03 11:43:04;;;;;;;4.13;3.73;;;;;;;11.30;92.04;94086.03;5071847;28;20455;-77